»·PEaware :: N2095K KSMX-KSMX

N2095K :: KSMX-KSMX

FLIGHT INFORMATION

Flight Status: Arrived
Operator: Privately registered:
United States
More flights under this callsign
Pilot: Vinicius U. (17612)
Aircraft: CESSNA 172 SKYHAWK
(C172)
More flights by this aircraft type
Origin: KSMX Santa Maria Pub/Capt Hancock
United States
Destination: KSMX Santa Maria Pub/Capt Hancock
United States
More flights between these airports :: More routes between these airports
Route: +RV
File this flight plan on PilotEdge
Remarks: flight to SBA, ifr approach, missed approach, return to SMX ifr approach
Altitude:
(Current/Filed)
5,000ft
Speed:
(Current/Filed)
125kts
Departed: 06-Jan-18 09:00 AM
Arrived: 06-Jan-18 09:51 AM
Distance/Time
Traveled:
1nm/0:51
Distance/Time
To Go:
Arrived

Flight Plot

Page will automatically refresh every two minutes.

Flight plan parsing failed; only flown route is shown


Map Options




Map Legend


Flown Route
Filed Route
Departure Airport
Arrival Airport
Navaid (VOR, NDB)
Fix

Horizontal Profiles

Position Reports

Time Latitude Longitude Heading Altitude Ground
Speed
06-Jan-18 08:40 34.896611 -120.445995 45 264ft 0kts
06-Jan-18 08:41 34.896611 -120.445995 45 264ft 0kts
06-Jan-18 08:42 34.896611 -120.445995 45 264ft 0kts
06-Jan-18 08:43 34.896611 -120.445995 45 264ft 0kts
06-Jan-18 08:44 34.896611 -120.445995 45 264ft 0kts
06-Jan-18 08:45 34.896611 -120.445995 45 264ft 0kts
06-Jan-18 08:46 34.896611 -120.445995 45 264ft 0kts
06-Jan-18 08:47 34.896611 -120.445995 45 264ft 0kts
06-Jan-18 08:48 34.896611 -120.445995 45 264ft 0kts
06-Jan-18 08:49 34.896611 -120.445995 45 264ft 0kts
06-Jan-18 08:50 34.896611 -120.445995 45 264ft 0kts
06-Jan-18 08:51 34.896611 -120.445995 45 264ft 0kts
06-Jan-18 08:52 34.896611 -120.445995 45 264ft 0kts
06-Jan-18 08:53 34.896611 -120.445995 45 264ft 0kts
06-Jan-18 08:54 34.896611 -120.445995 45 264ft 0kts
06-Jan-18 08:55 34.896611 -120.445995 45 264ft 0kts
06-Jan-18 08:56 34.896612 -120.445995 45 264ft 0kts
06-Jan-18 08:57 34.896613 -120.445993 45 264ft 0kts
06-Jan-18 08:58 34.896614 -120.445992 45 264ft 0kts
06-Jan-18 08:59 34.896615 -120.445991 45 264ft 0kts
06-Jan-18 09:00 34.896616 -120.445989 45 264ft 0kts
06-Jan-18 09:01 34.896617 -120.445988 45 264ft 0kts
06-Jan-18 09:02 34.894991 -120.445032 176 264ft 12kts
06-Jan-18 09:03 34.893540 -120.445726 183 264ft 0kts
06-Jan-18 09:04 34.893536 -120.445727 183 264ft 0kts
06-Jan-18 09:05 34.893013 -120.446123 318 264ft 8kts
06-Jan-18 09:06 34.905687 -120.460825 319 611ft 84kts
06-Jan-18 09:07 34.913808 -120.446461 123 1246ft 99kts
06-Jan-18 09:08 34.898985 -120.417076 121 1733ft 102kts
06-Jan-18 09:09 34.887678 -120.386213 109 2280ft 100kts
06-Jan-18 09:10 34.878376 -120.355147 133 2792ft 99kts
06-Jan-18 09:11 34.856908 -120.332384 140 3003ft 106kts
06-Jan-18 09:12 34.835772 -120.307168 135 2999ft 107kts
06-Jan-18 09:13 34.814352 -120.281956 134 3001ft 106kts
06-Jan-18 09:14 34.795017 -120.259820 134 2998ft 106kts
06-Jan-18 09:15 34.782777 -120.244851 133 2997ft 106kts
06-Jan-18 09:16 34.768971 -120.258074 289 3056ft 103kts
06-Jan-18 09:17 34.777152 -120.293034 286 2980ft 107kts
06-Jan-18 09:18 34.785456 -120.327982 285 2912ft 111kts
06-Jan-18 09:19 34.792152 -120.362850 282 2999ft 103kts
06-Jan-18 09:20 34.772257 -120.368213 144 2973ft 105kts
06-Jan-18 09:21 34.751398 -120.342346 132 2932ft 107kts
06-Jan-18 09:22 34.730776 -120.316344 132 2935ft 106kts
06-Jan-18 09:23 34.740590 -120.292571 0 2948ft 104kts
06-Jan-18 09:24 34.768434 -120.302585 339 2957ft 105kts
06-Jan-18 09:25 34.791341 -120.324692 317 2957ft 106kts
06-Jan-18 09:26 34.812176 -120.350309 315 2937ft 106kts
06-Jan-18 09:27 34.833703 -120.374308 318 2717ft 97kts
06-Jan-18 09:28 34.851691 -120.397542 315 2170ft 93kts
06-Jan-18 09:29 34.870677 -120.418932 316 1663ft 93kts
06-Jan-18 09:30 34.888713 -120.441389 318 1130ft 94kts
06-Jan-18 09:31 34.906433 -120.463269 310 1604ft 96kts
06-Jan-18 09:32 34.924029 -120.489135 301 2095ft 104kts
06-Jan-18 09:33 34.943093 -120.517023 287 2319ft 98kts
06-Jan-18 09:34 34.953854 -120.547557 299 2869ft 98kts
06-Jan-18 09:35 34.965575 -120.580460 294 2949ft 107kts
06-Jan-18 09:36 34.977742 -120.613215 292 2957ft 107kts
06-Jan-18 09:37 34.989688 -120.644508 296 2987ft 104kts
06-Jan-18 09:38 35.000999 -120.677903 292 2984ft 104kts
06-Jan-18 09:39 35.012958 -120.710836 295 2984ft 105kts
06-Jan-18 09:40 35.025238 -120.743686 292 2964ft 106kts
06-Jan-18 09:41 35.037420 -120.776456 293 2955ft 107kts
06-Jan-18 09:42 35.050143 -120.809239 303 2945ft 107kts
06-Jan-18 09:43 35.074450 -120.802543 43 2942ft 106kts
06-Jan-18 09:44 35.078916 -120.769531 104 2953ft 107kts
06-Jan-18 09:45 35.071637 -120.734199 103 2985ft 107kts
06-Jan-18 09:46 35.063752 -120.698622 104 2984ft 109kts
06-Jan-18 09:47 35.056643 -120.662998 103 2991ft 109kts
06-Jan-18 09:48 35.047882 -120.628357 138 2972ft 112kts
06-Jan-18 09:49 35.025203 -120.603876 133 3001ft 107kts
06-Jan-18 09:50 35.004544 -120.578448 137 3009ft 98kts
06-Jan-18 09:51 34.984867 -120.557719 136 2558ft 93kts
06-Jan-18 09:52 34.966696 -120.534229 133 1932ft 92kts
06-Jan-18 09:53 34.948384 -120.512201 136 1486ft 93kts
06-Jan-18 09:54 34.931045 -120.491754 138 1001ft 80kts
06-Jan-18 09:55 34.915061 -120.472273 135 568ft 81kts
06-Jan-18 09:56 34.900319 -120.454876 132 264ft 41kts
06-Jan-18 09:57 34.900179 -120.453487 358 264ft 0kts
06-Jan-18 09:58 34.900971 -120.453459 47 264ft 5kts
06-Jan-18 09:59 34.897155 -120.448995 132 264ft 24kts
06-Jan-18 10:00 34.896829 -120.446394 46 264ft 0kts
06-Jan-18 10:01 34.896830 -120.446394 46 264ft 0kts
06-Jan-18 10:02 34.896830 -120.446394 46 264ft 0kts
06-Jan-18 10:03 34.896830 -120.446394 46 264ft 0kts
06-Jan-18 10:04 34.896830 -120.446394 46 264ft 0kts
06-Jan-18 10:05 34.896830 -120.446394 46 264ft 0kts
06-Jan-18 10:06 34.896830 -120.446394 46 264ft 0kts
06-Jan-18 10:07 34.896830 -120.446394 46 264ft 0kts

Navigation Log

Ident Type
Flight plan parsing failed, navigation log unavailable